Time;durP1;ratioP1;P1;durP2;ratioP2;P2;SDS_P1;SDS_P2;PMS_P1;PMS_P2;Temp;Humidity;BMP_temperature;BMP_pressure;BME280_temperature;BME280_humidity;BME280_pressure;Samples;Min_cycle;Max_cycle;Signal;HPM_P1;HPM_P2
2022/03/31 00:00:36;;;;;;;22.57;16.37;;;9.40;99.90;;;;;;5014946;28;20454;-52
2022/03/31 00:03:05;;;;;;;24.50;17.20;;;9.40;99.90;;;;;;5014786;28;20487;-52
2022/03/31 00:05:33;;;;;;;21.50;15.47;;;9.30;99.90;;;;;;5014299;28;20447;-52
2022/03/31 00:08:01;;;;;;;21.90;15.53;;;9.40;99.90;;;;;;5014518;28;20565;-52
2022/03/31 00:10:31;;;;;;;21.67;17.23;;;9.30;99.90;;;;;;5014285;28;20485;-52
2022/03/31 00:13:00;;;;;;;19.70;15.40;;;9.20;99.90;;;;;;5014502;28;20447;-52
2022/03/31 00:15:29;;;;;;;24.77;16.17;;;9.30;99.90;;;;;;5014456;28;20454;-52
2022/03/31 00:17:58;;;;;;;21.60;16.53;;;9.30;99.90;;;;;;5014497;28;20466;-53
2022/03/31 00:20:26;;;;;;;21.40;15.80;;;9.20;99.90;;;;;;5014215;28;20958;-52
2022/03/31 00:22:53;;;;;;;22.60;15.70;;;9.30;99.90;;;;;;5013898;28;20483;-52
2022/03/31 00:25:20;;;;;;;22.43;15.93;;;9.20;99.90;;;;;;5014014;28;20951;-52
2022/03/31 00:27:48;;;;;;;23.70;16.33;;;9.10;99.90;;;;;;5014165;28;20471;-52
2022/03/31 00:30:16;;;;;;;23.80;16.03;;;9.10;99.90;;;;;;5013915;28;20879;-52
2022/03/31 00:32:43;;;;;;;24.70;17.27;;;9.10;99.90;;;;;;5013005;28;20816;-52
2022/03/31 00:35:13;;;;;;;20.93;17.03;;;9.00;99.90;;;;;;5014002;28;20546;-52
2022/03/31 00:37:41;;;;;;;17.30;14.27;;;9.00;99.90;;;;;;5013789;28;20546;-52
2022/03/31 00:40:10;;;;;;;23.73;16.50;;;8.90;99.90;;;;;;5014066;28;20447;-52
2022/03/31 00:42:41;;;;;;;19.13;15.80;;;8.80;99.90;;;;;;5014061;28;20483;-52
2022/03/31 00:45:19;;;;;;;19.20;14.50;;;8.80;99.90;;;;;;5013673;28;20454;-52
2022/03/31 00:47:47;;;;;;;21.77;15.67;;;8.80;99.90;;;;;;5013664;28;20995;-52
2022/03/31 00:50:16;;;;;;;21.30;15.47;;;8.70;99.90;;;;;;5013912;28;20443;-52
2022/03/31 00:52:43;;;;;;;20.77;15.23;;;8.70;99.90;;;;;;5013739;28;20490;-52
2022/03/31 00:55:14;;;;;;;19.77;15.10;;;8.80;99.90;;;;;;5013862;28;20455;-52
2022/03/31 00:57:43;;;;;;;19.57;14.27;;;8.80;99.90;;;;;;5013430;28;20477;-52
2022/03/31 01:00:15;;;;;;;17.93;14.10;;;8.80;99.90;;;;;;5013519;28;20458;-52
2022/03/31 01:02:44;;;;;;;17.03;12.60;;;8.80;99.90;;;;;;5013541;28;20463;-52
2022/03/31 01:05:11;;;;;;;17.63;13.97;;;8.80;99.90;;;;;;5013710;28;20450;-52
2022/03/31 01:07:40;;;;;;;16.53;14.90;;;8.80;99.90;;;;;;5013687;28;20574;-52
2022/03/31 01:10:10;;;;;;;14.17;12.50;;;8.60;99.90;;;;;;5013313;28;20882;-52
2022/03/31 01:12:37;;;;;;;19.93;14.30;;;8.70;99.90;;;;;;5013649;28;20455;-53
2022/03/31 01:15:10;;;;;;;18.00;12.87;;;8.70;99.90;;;;;;5013651;28;20466;-53
2022/03/31 01:17:39;;;;;;;17.97;14.40;;;8.80;99.90;;;;;;5013173;28;20478;-52
2022/03/31 01:20:08;;;;;;;16.77;12.80;;;8.70;99.90;;;;;;5013392;28;20934;-52
2022/03/31 01:22:36;;;;;;;18.80;14.60;;;8.70;99.90;;;;;;5013523;28;20510;-52
2022/03/31 01:25:07;;;;;;;15.67;13.10;;;8.80;99.90;;;;;;5013223;28;21083;-52
2022/03/31 01:27:36;;;;;;;18.00;12.80;;;8.80;99.90;;;;;;5013474;28;20467;-52
2022/03/31 01:30:06;;;;;;;17.47;13.50;;;8.80;99.90;;;;;;5013498;28;20458;-52
2022/03/31 01:32:39;;;;;;;18.53;14.53;;;8.70;99.90;;;;;;5013519;28;20499;-52
2022/03/31 01:35:07;;;;;;;17.53;13.40;;;8.70;99.90;;;;;;5013441;28;20465;-52
2022/03/31 01:37:34;;;;;;;15.00;12.20;;;8.60;99.90;;;;;;5013396;28;20493;-51
2022/03/31 01:40:01;;;;;;;14.97;12.63;;;8.60;99.90;;;;;;5013368;28;20542;-52
2022/03/31 01:42:31;;;;;;;15.33;12.70;;;8.60;99.90;;;;;;5012938;28;20483;-52
2022/03/31 01:44:59;;;;;;;20.00;13.50;;;8.60;99.90;;;;;;5016239;28;20447;-52
2022/03/31 01:47:26;;;;;;;20.90;14.70;;;8.60;99.90;;;;;;5016868;28;21164;-52
2022/03/31 01:49:53;;;;;;;18.70;13.83;;;8.60;99.90;;;;;;5016895;28;20443;-52
2022/03/31 01:52:21;;;;;;;17.73;14.60;;;8.60;99.90;;;;;;5017286;28;20443;-52
2022/03/31 01:54:49;;;;;;;19.60;13.90;;;8.60;99.90;;;;;;5017076;28;20455;-52
2022/03/31 01:57:16;;;;;;;17.87;14.30;;;8.60;99.90;;;;;;5016900;28;20474;-52
2022/03/31 01:59:45;;;;;;;20.33;13.87;;;8.60;99.90;;;;;;5016823;28;20813;-52
2022/03/31 02:02:13;;;;;;;17.17;14.10;;;8.60;99.90;;;;;;5016684;28;21079;-52
2022/03/31 02:04:41;;;;;;;18.03;14.83;;;8.60;99.90;;;;;;5016595;28;20451;-52
2022/03/31 02:07:09;;;;;;;18.17;14.83;;;8.60;99.90;;;;;;5016639;28;20483;-52
2022/03/31 02:09:36;;;;;;;19.97;15.60;;;8.70;99.90;;;;;;5015951;28;20565;-52
2022/03/31 02:12:03;;;;;;;17.23;14.53;;;8.70;99.90;;;;;;5016476;28;20960;-53
2022/03/31 02:14:37;;;;;;;19.50;15.23;;;8.60;99.90;;;;;;5016781;28;20510;-52
2022/03/31 02:17:06;;;;;;;20.10;13.53;;;8.60;99.90;;;;;;5016762;28;20549;-52
2022/03/31 02:19:33;;;;;;;17.80;14.10;;;8.70;99.90;;;;;;5016317;28;20954;-52
2022/03/31 02:22:01;;;;;;;18.43;14.43;;;8.60;99.90;;;;;;5016167;28;20451;-52
2022/03/31 02:24:29;;;;;;;24.20;15.53;;;8.60;99.90;;;;;;5016632;28;20447;-52
2022/03/31 02:26:56;;;;;;;16.80;13.37;;;8.60;99.90;;;;;;5016443;28;20489;-52
2022/03/31 02:29:24;;;;;;;16.63;14.17;;;8.60;99.90;;;;;;5016112;28;20459;-52
2022/03/31 02:31:51;;;;;;;16.33;13.20;;;8.60;99.90;;;;;;5016084;28;20505;-52
2022/03/31 02:34:20;;;;;;;17.77;15.30;;;8.60;99.90;;;;;;5016230;28;20818;-52
2022/03/31 02:36:47;;;;;;;20.43;13.67;;;8.40;99.90;;;;;;5016245;28;20466;-52
2022/03/31 02:39:14;;;;;;;20.10;14.10;;;8.20;99.90;;;;;;5016146;28;20453;-52
2022/03/31 02:41:42;;;;;;;17.90;13.53;;;8.20;99.90;;;;;;5015993;28;20451;-52
2022/03/31 02:44:10;;;;;;;16.47;14.33;;;8.20;99.90;;;;;;5016088;28;20487;-52
2022/03/31 02:46:38;;;;;;;17.87;13.97;;;8.30;99.90;;;;;;5016111;28;20509;-52
2022/03/31 02:49:05;;;;;;;18.83;15.40;;;8.30;99.90;;;;;;5015871;28;20509;-52
2022/03/31 02:51:33;;;;;;;19.27;14.03;;;8.30;99.90;;;;;;5015777;28;20451;-52
2022/03/31 02:56:45;;;;;;;14.97;12.70;;;8.00;99.90;;;;;;5014674;28;20407;-52
2022/03/31 02:59:13;;;;;;;19.80;14.50;;;8.10;99.90;;;;;;5015989;28;20447;-51
2022/03/31 03:01:42;;;;;;;18.93;14.40;;;8.10;99.90;;;;;;5015762;28;20451;-52
2022/03/31 03:04:09;;;;;;;16.30;14.07;;;8.10;99.90;;;;;;5015675;28;20511;-52
2022/03/31 03:06:38;;;;;;;18.60;14.73;;;8.10;99.90;;;;;;5015791;28;20516;-52
2022/03/31 03:09:05;;;;;;;16.37;14.50;;;7.90;99.90;;;;;;5015245;28;20438;-52
2022/03/31 03:11:33;;;;;;;19.17;17.20;;;7.80;99.90;;;;;;5015371;28;20771;-52
2022/03/31 03:14:00;;;;;;;22.33;16.30;;;7.80;99.90;;;;;;5015617;28;20469;-52
2022/03/31 03:16:27;;;;;;;18.57;14.30;;;7.80;99.90;;;;;;5015289;28;20527;-51
2022/03/31 03:18:54;;;;;;;19.83;15.33;;;7.90;99.90;;;;;;5015017;28;20482;-52
2022/03/31 03:21:22;;;;;;;19.63;15.20;;;7.90;99.90;;;;;;5015444;28;20453;-52
2022/03/31 03:23:50;;;;;;;21.33;16.50;;;7.80;99.90;;;;;;5015664;28;20509;-52
2022/03/31 03:26:17;;;;;;;18.40;14.43;;;7.90;99.90;;;;;;5014969;28;20465;-52
2022/03/31 03:28:46;;;;;;;19.87;15.40;;;8.00;99.90;;;;;;5015085;28;20474;-52
2022/03/31 03:31:13;;;;;;;18.70;15.23;;;8.00;99.90;;;;;;5015316;28;20455;-52
2022/03/31 03:33:41;;;;;;;20.03;15.90;;;7.90;99.90;;;;;;5014907;28;20451;-52
2022/03/31 03:36:20;;;;;;;18.43;16.17;;;;;;;;;;5014852;28;20453;-51
2022/03/31 03:38:47;;;;;;;18.40;15.40;;;7.40;99.90;;;;;;5014978;28;20467;-51
2022/03/31 03:41:16;;;;;;;22.23;16.43;;;7.40;99.90;;;;;;5014866;28;20451;-51
2022/03/31 03:43:44;;;;;;;19.87;15.70;;;7.40;99.90;;;;;;5014561;28;20483;-52
2022/03/31 03:46:11;;;;;;;20.83;16.57;;;7.30;99.90;;;;;;5014887;28;20455;-52
2022/03/31 03:48:38;;;;;;;20.90;14.80;;;7.40;99.90;;;;;;5014917;28;20471;-51
2022/03/31 03:51:06;;;;;;;17.47;14.67;;;7.20;99.90;;;;;;5014517;28;20454;-51
2022/03/31 03:53:33;;;;;;;21.77;16.50;;;7.10;99.90;;;;;;5014390;28;20945;-51
2022/03/31 03:56:00;;;;;;;17.57;15.10;;;7.10;99.90;;;;;;5014900;28;20517;-52
2022/03/31 03:58:28;;;;;;;20.60;17.40;;;7.10;99.90;;;;;;5014611;28;20478;-51
2022/03/31 04:00:55;;;;;;;19.70;15.93;;;7.00;99.90;;;;;;5014594;28;20443;-51
2022/03/31 04:03:22;;;;;;;18.83;15.73;;;7.10;99.90;;;;;;5014688;28;20482;-52
2022/03/31 04:05:50;;;;;;;23.03;17.20;;;7.20;99.90;;;;;;5014198;28;20450;-52
2022/03/31 04:08:17;;;;;;;22.27;17.43;;;7.10;99.90;;;;;;5014408;28;20481;-52
2022/03/31 04:10:45;;;;;;;17.30;14.70;;;7.10;99.90;;;;;;5014179;28;20485;-52
2022/03/31 04:13:14;;;;;;;19.30;15.50;;;7.10;99.90;;;;;;5014117;28;20803;-52
2022/03/31 04:15:43;;;;;;;22.53;16.57;;;7.10;99.90;;;;;;5014384;28;20502;-51
2022/03/31 04:18:10;;;;;;;17.97;15.33;;;7.20;99.90;;;;;;5013990;28;20932;-51
2022/03/31 04:20:37;;;;;;;18.00;14.83;;;7.20;99.90;;;;;;5014393;28;20451;-51
2022/03/31 04:23:05;;;;;;;20.70;15.77;;;7.20;99.90;;;;;;5013841;28;20483;-51
2022/03/31 04:25:33;;;;;;;17.83;14.90;;;7.40;99.90;;;;;;5013884;28;20447;-51
2022/03/31 04:28:00;;;;;;;19.97;15.17;;;7.50;99.90;;;;;;5014201;28;20484;-52
2022/03/31 04:30:27;;;;;;;18.77;15.93;;;7.50;99.90;;;;;;5014089;28;20455;-52
2022/03/31 04:32:55;;;;;;;18.73;16.73;;;7.50;99.90;;;;;;5013780;28;21037;-51
2022/03/31 04:35:22;;;;;;;20.67;17.20;;;7.50;99.90;;;;;;5014222;28;20458;-52
2022/03/31 04:37:50;;;;;;;18.83;16.80;;;7.50;99.90;;;;;;5014074;28;20471;-51
2022/03/31 04:40:17;;;;;;;19.37;16.53;;;7.40;99.90;;;;;;5013930;28;20447;-51
2022/03/31 04:42:44;;;;;;;20.47;15.43;;;7.50;99.90;;;;;;5013661;28;20451;-52
2022/03/31 04:45:11;;;;;;;21.00;16.10;;;7.40;99.90;;;;;;5013919;28;20451;-52
2022/03/31 04:47:39;;;;;;;20.03;16.80;;;7.50;99.90;;;;;;5013840;28;20505;-51
2022/03/31 04:50:08;;;;;;;17.60;14.40;;;7.40;99.90;;;;;;5013977;28;20513;-52
2022/03/31 04:52:35;;;;;;;19.13;15.23;;;7.50;99.90;;;;;;5013413;28;20961;-51
2022/03/31 04:55:03;;;;;;;18.77;15.47;;;7.40;99.90;;;;;;5013819;28;20453;-52
2022/03/31 04:57:30;;;;;;;17.73;14.97;;;7.20;99.90;;;;;;5013697;28;20475;-52
2022/03/31 04:59:57;;;;;;;20.30;16.23;;;7.30;99.90;;;;;;5013380;28;20456;-51
2022/03/31 05:02:24;;;;;;;17.13;15.27;;;7.20;99.90;;;;;;5013638;28;20451;-51
2022/03/31 05:04:51;;;;;;;16.93;14.20;;;7.20;99.90;;;;;;5013323;28;21006;-51
2022/03/31 05:07:20;;;;;;;19.20;16.10;;;7.20;99.90;;;;;;5013518;28;20514;-52
2022/03/31 05:09:47;;;;;;;18.53;16.47;;;7.20;99.90;;;;;;5013388;28;20475;-51
2022/03/31 05:12:14;;;;;;;19.37;14.90;;;7.10;99.90;;;;;;5013581;28;20451;-51
2022/03/31 05:14:41;;;;;;;18.40;16.03;;;7.00;99.90;;;;;;5013612;28;20481;-51
2022/03/31 05:17:08;;;;;;;17.70;14.77;;;7.00;99.90;;;;;;5013499;28;20471;-51
2022/03/31 05:19:37;;;;;;;18.87;15.60;;;7.00;99.90;;;;;;5012628;28;20451;-51
2022/03/31 05:22:05;;;;;;;20.40;15.30;;;7.20;99.90;;;;;;5013352;28;20451;-51
2022/03/31 05:24:33;;;;;;;20.13;17.50;;;7.20;99.90;;;;;;5012981;28;20830;-51
2022/03/31 05:27:00;;;;;;;18.47;14.57;;;7.40;99.90;;;;;;5012963;28;20466;-51
2022/03/31 05:29:27;;;;;;;15.10;13.50;;;7.40;99.90;;;;;;5013560;28;20447;-51
2022/03/31 05:31:55;;;;;;;18.73;15.93;;;7.30;99.90;;;;;;5012873;28;20865;-51
2022/03/31 05:34:22;;;;;;;16.23;13.77;;;7.30;99.90;;;;;;5012751;28;20455;-51
2022/03/31 05:36:50;;;;;;;16.87;14.90;;;7.30;99.90;;;;;;5013073;28;20470;-50
2022/03/31 05:39:17;;;;;;;19.40;15.93;;;7.00;99.90;;;;;;5012856;28;20432;-51
2022/03/31 05:41:46;;;;;;;17.37;14.40;;;6.90;99.90;;;;;;5012734;28;20521;-49
2022/03/31 05:44:13;;;;;;;19.40;15.20;;;6.90;99.90;;;;;;5012975;28;20482;-50
2022/03/31 05:46:40;;;;;;;18.63;16.50;;;6.80;99.90;;;;;;5012830;28;20469;-49
2022/03/31 05:49:07;;;;;;;19.27;16.37;;;6.80;99.90;;;;;;5012628;28;20802;-49
2022/03/31 05:51:34;;;;;;;16.63;13.87;;;6.70;99.90;;;;;;5012587;28;20800;-53
2022/03/31 05:54:03;;;;;;;21.60;16.90;;;6.70;99.90;;;;;;5012627;28;20451;-49
2022/03/31 05:56:31;;;;;;;18.97;15.20;;;6.70;99.90;;;;;;5012938;28;20579;-50
2022/03/31 05:58:59;;;;;;;20.00;15.83;;;6.70;99.90;;;;;;5012845;28;20502;-50
2022/03/31 06:01:26;;;;;;;18.03;15.13;;;6.80;99.90;;;;;;5012758;28;20808;-50
2022/03/31 06:03:55;;;;;;;17.37;14.80;;;6.90;99.90;;;;;;5012819;28;20566;-50
2022/03/31 06:06:23;;;;;;;22.20;16.70;;;6.90;99.90;;;;;;5012587;28;20966;-50
2022/03/31 06:08:50;;;;;;;20.97;16.30;;;6.80;99.90;;;;;;5012789;28;20471;-51
2022/03/31 06:11:17;;;;;;;23.97;16.47;;;6.80;99.90;;;;;;5012335;28;20569;-52
2022/03/31 06:13:45;;;;;;;21.47;16.80;;;6.90;99.90;;;;;;5012390;28;20489;-51
2022/03/31 06:16:13;;;;;;;21.23;17.53;;;7.00;99.90;;;;;;5012846;28;20545;-51
2022/03/31 06:18:41;;;;;;;20.27;16.37;;;6.90;99.90;;;;;;5012680;28;20471;-51
2022/03/31 06:21:08;;;;;;;23.10;17.13;;;6.90;99.90;;;;;;5012719;28;20601;-51
2022/03/31 06:23:35;;;;;;;20.50;15.33;;;7.00;99.90;;;;;;5012569;28;20486;-51
2022/03/31 06:26:02;;;;;;;17.30;14.83;;;7.10;99.90;;;;;;5012222;28;20938;-51
2022/03/31 06:28:31;;;;;;;19.40;17.20;;;7.10;99.90;;;;;;5012533;28;20466;-51
2022/03/31 06:30:58;;;;;;;19.77;16.90;;;7.10;99.90;;;;;;5013768;28;20537;-51
2022/03/31 06:33:29;;;;;;;21.70;15.70;;;7.10;99.90;;;;;;5015767;28;20443;-51
2022/03/31 06:35:56;;;;;;;18.63;15.13;;;7.20;99.90;;;;;;5016089;28;20522;-51
2022/03/31 06:38:24;;;;;;;22.40;16.27;;;7.20;99.90;;;;;;5016146;28;20482;-51
2022/03/31 06:43:32;;;;;;;19.53;15.90;;;7.20;99.90;;;;;;5015132;28;20478;-51
2022/03/31 06:46:00;;;;;;;18.23;15.53;;;7.10;99.90;;;;;;5015326;28;20447;-51
2022/03/31 06:48:29;;;;;;;21.77;15.70;;;7.10;99.90;;;;;;5015465;28;20553;-51
2022/03/31 06:50:57;;;;;;;17.70;15.43;;;7.00;99.90;;;;;;5015630;28;20490;-51
2022/03/31 06:53:24;;;;;;;17.63;15.77;;;7.20;99.90;;;;;;5015214;28;20453;-51
2022/03/31 06:55:52;;;;;;;21.30;16.93;;;7.20;99.90;;;;;;5015036;28;20454;-51
2022/03/31 06:58:21;;;;;;;19.20;15.40;;;7.30;99.90;;;;;;5015433;28;20962;-51
2022/03/31 07:00:48;;;;;;;18.00;15.53;;;7.30;99.90;;;;;;5015141;28;20447;-51
2022/03/31 07:03:16;;;;;;;20.23;15.23;;;7.50;99.90;;;;;;5015192;28;20537;-51
2022/03/31 07:05:45;;;;;;;16.70;14.50;;;7.50;99.90;;;;;;5015211;28;20451;-52
2022/03/31 07:08:12;;;;;;;18.13;15.80;;;7.50;99.90;;;;;;5015412;28;20483;-51
2022/03/31 07:10:39;;;;;;;20.67;15.53;;;7.50;99.90;;;;;;5014827;28;20487;-51
2022/03/31 07:13:06;;;;;;;20.57;15.20;;;7.50;99.90;;;;;;5015092;28;20455;-51
2022/03/31 07:15:34;;;;;;;21.23;16.30;;;7.60;99.90;;;;;;5015310;28;20451;-51
2022/03/31 07:18:03;;;;;;;19.60;17.03;;;7.60;99.90;;;;;;5015252;28;20479;-51
2022/03/31 07:20:30;;;;;;;21.67;16.93;;;7.60;99.90;;;;;;5015171;28;20527;-51
2022/03/31 07:22:59;;;;;;;19.03;15.90;;;7.50;99.90;;;;;;5015018;28;20577;-51
2022/03/31 07:25:27;;;;;;;23.40;17.70;;;7.50;99.90;;;;;;5015110;28;20582;-52
2022/03/31 07:27:55;;;;;;;19.37;15.57;;;7.50;99.90;;;;;;5014999;28;20482;-52
2022/03/31 07:30:23;;;;;;;21.17;16.60;;;7.50;99.90;;;;;;5014947;28;20455;-52
2022/03/31 07:32:51;;;;;;;20.83;16.77;;;7.60;99.90;;;;;;5014698;28;20459;-52
2022/03/31 07:35:19;;;;;;;19.63;15.03;;;7.70;99.90;;;;;;5014151;28;20447;-51
2022/03/31 07:37:46;;;;;;;21.87;17.47;;;7.80;99.90;;;;;;5014711;28;20514;-52
2022/03/31 07:40:15;;;;;;;21.20;16.93;;;7.90;99.90;;;;;;5014367;28;20538;-51
2022/03/31 07:42:42;;;;;;;19.47;16.00;;;8.00;99.90;;;;;;5013609;28;20534;-54
2022/03/31 07:45:11;;;;;;;23.13;16.90;;;8.10;99.90;;;;;;5014591;28;20578;-54
2022/03/31 07:47:39;;;;;;;25.43;16.50;;;8.00;99.90;;;;;;5014570;28;20909;-52
2022/03/31 07:50:07;;;;;;;21.47;16.80;;;8.00;99.90;;;;;;5014588;28;20497;-51
2022/03/31 07:52:35;;;;;;;21.07;16.20;;;8.00;99.90;;;;;;5014157;28;20446;-52
2022/03/31 07:55:02;;;;;;;20.60;16.60;;;7.90;99.90;;;;;;5014009;28;20545;-51
2022/03/31 07:57:31;;;;;;;18.40;15.43;;;8.20;99.90;;;;;;5014342;28;20554;-51
2022/03/31 07:59:59;;;;;;;20.17;16.90;;;8.20;99.90;;;;;;5014313;28;20505;-52
2022/03/31 08:02:27;;;;;;;19.37;16.40;;;8.40;99.90;;;;;;5014141;28;20487;-51
2022/03/31 08:04:54;;;;;;;21.07;16.63;;;8.40;99.90;;;;;;5014294;28;20847;-51
2022/03/31 08:07:22;;;;;;;19.60;16.23;;;8.50;99.90;;;;;;5014095;28;20977;-51
2022/03/31 08:09:49;;;;;;;18.83;16.40;;;8.50;99.90;;;;;;5014042;28;20518;-51
2022/03/31 08:12:16;;;;;;;17.40;15.57;;;8.50;99.90;;;;;;5013867;28;20466;-52
2022/03/31 08:14:45;;;;;;;24.37;18.40;;;8.60;99.90;;;;;;5014168;28;20470;-52
2022/03/31 08:17:12;;;;;;;20.37;15.90;;;8.00;99.90;;;;;;5013979;28;21000;-51
2022/03/31 08:19:39;;;;;;;20.83;15.80;;;7.90;99.90;;;;;;5014162;28;20451;-51
2022/03/31 08:22:07;;;;;;;23.23;16.73;;;7.90;99.90;;;;;;5014227;28;20477;-51
2022/03/31 08:24:34;;;;;;;22.97;16.80;;;8.10;99.90;;;;;;5014276;28;20486;-51
2022/03/31 08:27:03;;;;;;;21.10;16.60;;;8.20;99.90;;;;;;5013773;28;20467;-51
2022/03/31 08:29:30;;;;;;;20.47;16.93;;;8.20;99.90;;;;;;5013892;28;20455;-51
2022/03/31 08:32:01;;;;;;;20.30;17.13;;;8.30;99.90;;;;;;5014152;28;20447;-51
2022/03/31 08:34:28;;;;;;;24.53;17.47;;;8.30;99.90;;;;;;5013524;28;20431;-51
2022/03/31 08:36:55;;;;;;;21.73;17.87;;;8.40;99.90;;;;;;5013361;28;20459;-51
2022/03/31 08:39:22;;;;;;;22.43;17.87;;;8.30;99.90;;;;;;5013858;28;20451;-51
2022/03/31 08:41:49;;;;;;;23.20;18.27;;;8.20;99.90;;;;;;5013521;28;20455;-51
2022/03/31 08:44:19;;;;;;;24.63;19.50;;;8.30;99.90;;;;;;5013324;28;20993;-52
2022/03/31 08:46:47;;;;;;;23.17;18.87;;;8.40;99.90;;;;;;5013488;28;20450;-52
2022/03/31 08:49:16;;;;;;;20.57;18.30;;;8.50;99.90;;;;;;5013790;28;20455;-51
2022/03/31 08:51:45;;;;;;;23.43;18.47;;;8.60;99.90;;;;;;5013596;28;20479;-51
2022/03/31 08:54:12;;;;;;;32.23;19.77;;;8.50;99.90;;;;;;5012604;28;20451;-50
2022/03/31 08:56:39;;;;;;;21.10;17.40;;;8.40;99.90;;;;;;5013502;28;20446;-51
2022/03/31 08:59:07;;;;;;;20.80;18.20;;;8.40;99.90;;;;;;5013100;28;20447;-50
2022/03/31 09:01:34;;;;;;;21.33;18.10;;;8.50;99.90;;;;;;5013166;28;20461;-51
2022/03/31 09:04:02;;;;;;;21.13;17.50;;;8.50;99.90;;;;;;5013303;28;20505;-51
2022/03/31 09:06:30;;;;;;;23.13;18.33;;;8.60;99.90;;;;;;5012942;28;20451;-50
2022/03/31 09:08:59;;;;;;;23.43;16.10;;;8.80;99.90;;;;;;5013186;28;20471;-51
2022/03/31 09:11:27;;;;;;;26.10;19.03;;;9.10;99.90;;;;;;5013373;28;20522;-53
2022/03/31 09:13:59;;;;;;;22.23;17.33;;;9.60;99.90;;;;;;5013202;28;20447;-52
2022/03/31 09:16:34;;;;;;;24.30;19.20;;;9.80;99.90;;;;;;5013490;28;20451;-51
2022/03/31 09:19:03;;;;;;;20.73;17.97;;;9.70;99.90;;;;;;5013231;28;20506;-51
2022/03/31 09:21:32;;;;;;;22.10;17.87;;;9.50;99.90;;;;;;5013079;28;20530;-50
2022/03/31 09:24:01;;;;;;;23.60;19.47;;;9.20;99.90;;;;;;5013132;28;20864;-50
2022/03/31 09:26:31;;;;;;;24.20;17.67;;;9.20;99.90;;;;;;5012947;28;20447;-51
2022/03/31 09:29:12;;;;;;;21.33;17.70;;;9.10;99.90;;;;;;5012815;28;21024;-52
2022/03/31 09:31:40;;;;;;;21.80;18.30;;;9.20;99.90;;;;;;5013467;28;20800;-52
2022/03/31 09:34:08;;;;;;;25.60;19.70;;;9.30;99.90;;;;;;5013252;28;20443;-52
2022/03/31 09:36:39;;;;;;;22.63;18.00;;;9.20;99.90;;;;;;5012930;28;20511;-52
2022/03/31 09:39:13;;;;;;;28.00;20.40;;;9.30;99.90;;;;;;5012937;28;20436;-54
2022/03/31 09:41:42;;;;;;;25.97;20.30;;;9.30;99.90;;;;;;5012813;28;20431;-51
2022/03/31 09:44:13;;;;;;;25.33;19.00;;;9.30;99.90;;;;;;5012769;28;20455;-51
2022/03/31 09:46:41;;;;;;;27.47;20.63;;;9.30;99.90;;;;;;5012900;28;20458;-50
2022/03/31 09:49:16;;;;;;;25.33;20.90;;;9.30;99.90;;;;;;5012784;28;20447;-50
2022/03/31 09:51:46;;;;;;;25.00;20.47;;;9.10;99.90;;;;;;5012672;28;20438;-50
2022/03/31 09:54:14;;;;;;;23.90;19.30;;;9.40;99.90;;;;;;5012954;28;20432;-52
2022/03/31 09:56:41;;;;;;;27.30;20.47;;;9.80;99.90;;;;;;5012845;28;20453;-51
2022/03/31 09:59:11;;;;;;;24.20;19.10;;;10.10;99.90;;;;;;5012881;28;20451;-51
2022/03/31 10:01:39;;;;;;;25.87;18.30;;;10.40;99.90;;;;;;5012953;28;20451;-51
2022/03/31 10:04:07;;;;;;;24.70;19.10;;;10.70;99.90;;;;;;5012712;28;20454;-51
2022/03/31 10:06:35;;;;;;;21.83;18.60;;;11.20;99.90;;;;;;5015718;28;21009;-51
2022/03/31 10:09:05;;;;;;;23.67;20.50;;;11.50;99.90;;;;;;5016307;28;20478;-52
2022/03/31 10:11:35;;;;;;;24.07;19.60;;;11.50;99.90;;;;;;5016482;28;20514;-51
2022/03/31 10:14:11;;;;;;;25.73;21.10;;;11.30;99.90;;;;;;5016118;28;20455;-52
2022/03/31 10:16:44;;;;;;;29.47;21.67;;;11.70;99.90;;;;;;5016025;28;20932;-52
2022/03/31 10:19:12;;;;;;;23.67;19.87;;;11.90;99.90;;;;;;5016357;28;20858;-51
2022/03/31 10:21:39;;;;;;;22.47;19.10;;;11.90;99.90;;;;;;5015712;28;20505;-51
2022/03/31 10:27:01;;;;;;;27.67;19.63;;;11.50;99.90;;;;;;5015841;28;20940;-50
2022/03/31 10:29:39;;;;;;;24.60;18.30;;;11.20;99.90;;;;;;5016002;28;20477;-50
2022/03/31 10:32:17;;;;;;;23.23;19.50;;;11.10;99.90;;;;;;5016038;28;20435;-51
2022/03/31 10:34:48;;;;;;;25.17;20.00;;;11.10;99.90;;;;;;5015970;28;20478;-51
2022/03/31 10:37:17;;;;;;;27.30;19.60;;;11.10;99.90;;;;;;5015781;28;20509;-51
2022/03/31 10:39:56;;;;;;;24.00;18.17;;;11.00;99.90;;;;;;5015863;28;20447;-51
2022/03/31 10:42:24;;;;;;;24.33;19.10;;;10.90;99.90;;;;;;5014307;28;20443;-51
2022/03/31 10:45:02;;;;;;;30.03;21.33;;;10.70;99.90;;;;;;5015755;28;20493;-51
2022/03/31 10:47:34;;;;;;;23.43;18.83;;;10.40;99.90;;;;;;5015583;28;20873;-51
2022/03/31 10:50:01;;;;;;;22.90;18.40;;;10.70;99.90;;;;;;5015624;28;20846;-52
2022/03/31 10:52:29;;;;;;;26.10;20.20;;;10.80;99.90;;;;;;5015404;28;20533;-52
2022/03/31 10:55:10;;;;;;;27.90;20.30;;;10.90;99.90;;;;;;5015499;28;20450;-50
2022/03/31 10:57:43;;;;;;;23.90;20.30;;;10.90;99.90;;;;;;5015305;28;21073;-50
2022/03/31 11:00:14;;;;;;;24.60;18.87;;;10.90;99.90;;;;;;5015225;28;20451;-50
2022/03/31 11:02:44;;;;;;;25.87;21.10;;;11.00;99.90;;;;;;5015375;28;20454;-51
2022/03/31 11:05:12;;;;;;;25.13;21.60;;;11.10;99.90;;;;;;5015054;28;20493;-51
2022/03/31 11:07:39;;;;;;;21.73;19.03;;;11.20;99.90;;;;;;5015326;28;20999;-51
2022/03/31 11:10:11;;;;;;;27.87;21.13;;;11.20;99.90;;;;;;5015049;28;20534;-50
2022/03/31 11:12:40;;;;;;;26.30;20.10;;;11.40;99.90;;;;;;5014981;28;20570;-53
2022/03/31 11:15:09;;;;;;;25.43;18.83;;;11.40;99.90;;;;;;5014907;28;20451;-52
2022/03/31 11:17:37;;;;;;;28.50;18.23;;;11.20;99.90;;;;;;5013893;28;20502;-50
2022/03/31 11:20:14;;;;;;;24.03;18.87;;;11.10;99.90;;;;;;5014700;28;20506;-53
2022/03/31 11:22:48;;;;;;;23.40;19.90;;;11.10;99.90;;;;;;5014925;28;20438;-50
2022/03/31 11:25:17;;;;;;;27.17;20.47;;;11.00;99.90;;;;;;5015292;28;20470;-51
2022/03/31 11:27:46;;;;;;;26.20;19.93;;;10.90;99.90;;;;;;5014947;28;20471;-50
2022/03/31 11:30:16;;;;;;;26.90;20.03;;;10.80;99.90;;;;;;5014987;28;20509;-51
2022/03/31 11:32:44;;;;;;;28.30;21.20;;;10.70;99.90;;;;;;5014628;28;20455;-51
2022/03/31 11:35:13;;;;;;;27.10;21.37;;;10.70;99.90;;;;;;5014703;28;20914;-51
2022/03/31 11:37:49;;;;;;;30.10;22.33;;;10.60;99.90;;;;;;5014930;28;20514;-52
2022/03/31 11:40:22;;;;;;;28.73;22.50;;;10.80;99.90;;;;;;5014372;28;20447;-52
2022/03/31 11:42:50;;;;;;;29.40;21.80;;;11.10;99.90;;;;;;5014460;28;20490;-52
2022/03/31 11:45:30;;;;;;;26.90;20.50;;;11.20;99.90;;;;;;5014710;28;20486;-52
2022/03/31 11:47:59;;;;;;;29.10;21.33;;;11.10;99.90;;;;;;5014635;28;20479;-52
2022/03/31 11:50:28;;;;;;;26.63;19.80;;;11.30;99.90;;;;;;5014248;28;20822;-54
2022/03/31 11:52:55;;;;;;;22.27;18.00;;;11.10;99.90;;;;;;5014045;28;20641;-53
2022/03/31 11:55:24;;;;;;;28.50;20.83;;;10.90;99.90;;;;;;5014276;28;20486;-52
2022/03/31 11:57:53;;;;;;;23.40;19.27;;;10.90;99.90;;;;;;5014516;28;20475;-53
2022/03/31 12:00:22;;;;;;;26.37;20.03;;;11.00;99.90;;;;;;5014125;28;20447;-53
2022/03/31 12:03:01;;;;;;;26.60;19.13;;;11.00;99.90;;;;;;5014877;28;20461;-52
2022/03/31 12:05:29;;;;;;;20.10;17.60;;;11.00;99.90;;;;;;5014595;28;20577;-52
2022/03/31 12:07:57;;;;;;;21.70;18.33;;;10.90;99.90;;;;;;5014503;28;20487;-53
2022/03/31 12:10:26;;;;;;;28.07;19.53;;;10.80;99.90;;;;;;5014148;28;20490;-53
2022/03/31 12:13:01;;;;;;;19.50;17.00;;;10.90;99.90;;;;;;5014395;28;20460;-53
2022/03/31 12:15:30;;;;;;;26.33;20.67;;;10.90;99.90;;;;;;5014314;28;20806;-53
2022/03/31 12:18:08;;;;;;;24.30;18.83;;;10.90;99.90;;;;;;5014268;28;20641;-53
2022/03/31 12:20:37;;;;;;;22.73;17.80;;;11.10;99.90;;;;;;5014024;28;20453;-52
2022/03/31 12:23:17;;;;;;;24.17;18.07;;;11.30;99.90;;;;;;5014241;28;20458;-52
2022/03/31 12:25:46;;;;;;;24.70;16.87;;;11.30;99.90;;;;;;5014485;28;20574;-54
2022/03/31 12:28:13;;;;;;;22.20;17.60;;;11.60;99.90;;;;;;5013596;28;20467;-53
2022/03/31 12:30:41;;;;;;;20.50;16.90;;;11.70;99.90;;;;;;5013974;28;20447;-53
2022/03/31 12:33:20;;;;;;;21.73;17.57;;;11.80;99.90;;;;;;5014227;28;20455;-52
2022/03/31 12:36:00;;;;;;;23.93;18.00;;;11.80;99.90;;;;;;5013664;28;20541;-52
2022/03/31 12:38:49;;;;;;;22.50;18.20;;;11.90;99.90;;;;;;5014152;28;20486;-51
2022/03/31 12:41:20;;;;;;;23.13;17.70;;;11.80;99.90;;;;;;5010726;28;20467;-51
2022/03/31 12:44:04;;;;;;;20.40;17.33;;;11.80;99.90;;;;;;5013344;28;20447;-51
2022/03/31 12:46:33;;;;;;;23.47;16.83;;;11.90;99.90;;;;;;5011287;28;20483;-51
2022/03/31 12:49:04;;;;;;;22.53;17.27;;;11.80;99.90;;;;;;5009268;28;20479;-51
2022/03/31 12:51:42;;;;;;;26.73;18.40;;;11.60;99.90;;;;;;5006756;28;20473;-51